createdAt,value
2019-04-04T00:01:18.561Z,8.97
2019-04-04T00:03:47.034Z,8.97
2019-04-04T00:06:15.532Z,8.99
2019-04-04T00:08:44.062Z,8.98
2019-04-04T00:11:14.216Z,9.01
2019-04-04T00:13:42.689Z,9.02
2019-04-04T00:16:11.157Z,9.03
2019-04-04T00:18:39.636Z,9.07
2019-04-04T00:21:08.103Z,9.08
2019-04-04T00:23:38.030Z,9.07
2019-04-04T00:26:07.049Z,9.06
2019-04-04T00:28:35.512Z,9.08
2019-04-04T00:31:04.042Z,9.10
2019-04-04T00:33:32.578Z,9.04
2019-04-04T00:36:02.758Z,8.95
2019-04-04T00:38:31.319Z,8.93
2019-04-04T00:40:59.804Z,8.91
2019-04-04T00:43:28.263Z,8.77
2019-04-04T00:45:56.752Z,8.77
2019-04-04T00:48:25.210Z,8.77
2019-04-04T00:50:53.693Z,8.78
2019-04-04T00:53:22.236Z,8.83
2019-04-04T00:55:50.764Z,8.78
2019-04-04T00:58:20.829Z,8.84
2019-04-04T01:00:49.558Z,8.86
2019-04-04T01:03:18.078Z,8.86
2019-04-04T01:05:46.562Z,8.85
2019-04-04T01:08:15.105Z,8.85
2019-04-04T01:10:43.571Z,8.82
2019-04-04T01:13:12.034Z,8.78
2019-04-04T01:15:40.657Z,8.80
2019-04-04T01:18:09.135Z,8.80
2019-04-04T01:20:37.596Z,8.80
2019-04-04T01:23:06.157Z,8.71
2019-04-04T01:25:34.790Z,8.69
2019-04-04T01:28:03.270Z,8.67
2019-04-04T01:30:31.809Z,8.66
2019-04-04T01:33:00.274Z,8.60
2019-04-04T01:35:28.737Z,8.59
2019-04-04T01:37:58.235Z,8.60
2019-04-04T01:40:27.284Z,8.63
2019-04-04T01:42:55.758Z,8.62
2019-04-04T01:45:24.247Z,8.62
2019-04-04T01:47:52.701Z,8.64
2019-04-04T01:50:22.903Z,8.64
2019-04-04T01:52:51.360Z,8.63
2019-04-04T01:55:19.849Z,8.60
2019-04-04T01:57:48.391Z,8.62
2019-04-04T02:00:17.000Z,8.61
2019-04-04T02:02:45.473Z,8.54
2019-04-04T02:05:13.995Z,8.56
2019-04-04T02:07:42.463Z,8.56
2019-04-04T02:10:11.395Z,8.52
2019-04-04T02:12:39.873Z,8.48
2019-04-04T02:15:13.930Z,8.45
2019-04-04T02:17:42.137Z,8.45
2019-04-04T02:20:10.749Z,8.47
2019-04-04T02:22:39.236Z,8.48
2019-04-04T02:25:08.096Z,8.42
2019-04-04T02:27:37.939Z,8.43
2019-04-04T02:30:07.525Z,8.41
2019-04-04T02:32:36.017Z,8.40
2019-04-04T02:35:10.040Z,8.37
2019-04-04T02:37:36.629Z,8.35
2019-04-04T02:40:09.158Z,8.32
2019-04-04T02:42:39.189Z,8.28
2019-04-04T02:45:08.645Z,8.24
2019-04-04T02:47:37.094Z,8.16
2019-04-04T02:50:07.100Z,8.18
2019-04-04T02:52:35.621Z,8.18
2019-04-04T02:55:04.829Z,8.14
2019-04-04T02:57:33.279Z,8.12
2019-04-04T03:00:01.964Z,8.08
2019-04-04T03:02:30.397Z,8.08
2019-04-04T03:04:58.962Z,8.07
2019-04-04T03:07:30.107Z,8.05
2019-04-04T03:09:57.837Z,8.03
2019-04-04T03:12:26.985Z,8.00
2019-04-04T03:14:55.679Z,7.97
2019-04-04T03:17:25.737Z,7.94
2019-04-04T03:19:54.284Z,7.89
2019-04-04T03:22:24.590Z,7.89
2019-04-04T03:24:52.999Z,7.88
2019-04-04T03:27:25.454Z,7.84
2019-04-04T03:29:51.778Z,7.87
2019-04-04T03:32:20.256Z,7.87
2019-04-04T03:34:51.174Z,7.83
2019-04-04T03:37:19.039Z,7.79
2019-04-04T03:39:51.914Z,7.75
2019-04-04T03:42:17.710Z,7.74
2019-04-04T03:44:46.217Z,7.73
2019-04-04T03:47:14.649Z,7.70
2019-04-04T03:49:43.142Z,7.67
2019-04-04T03:52:11.715Z,7.62
2019-04-04T03:54:41.075Z,7.59
2019-04-04T03:57:12.226Z,7.58
2019-04-04T03:59:39.765Z,7.55
2019-04-04T04:02:08.251Z,7.55
2019-04-04T04:05:00.506Z,7.58
2019-04-04T04:07:26.225Z,7.58
2019-04-04T04:09:59.278Z,7.60
2019-04-04T04:12:24.917Z,7.61
2019-04-04T04:14:54.776Z,7.63
2019-04-04T04:17:23.718Z,7.64
2019-04-04T04:19:52.357Z,7.63
2019-04-04T04:22:20.821Z,7.63
2019-04-04T04:24:51.865Z,7.62
2019-04-04T04:27:20.335Z,7.63
2019-04-04T04:29:48.793Z,7.66
2019-04-04T04:32:21.274Z,7.69
2019-04-04T04:34:47.545Z,7.70
2019-04-04T04:37:19.855Z,7.72
2019-04-04T04:39:46.285Z,7.74
2019-04-04T04:42:14.746Z,7.78
2019-04-04T04:44:43.219Z,7.80
2019-04-04T04:47:11.680Z,7.80
2019-04-04T04:49:40.173Z,7.83
2019-04-04T04:52:08.691Z,7.84
2019-04-04T04:54:37.180Z,7.87
2019-04-04T04:57:05.643Z,7.89
2019-04-04T04:59:34.146Z,7.91
2019-04-04T05:02:02.740Z,7.92
2019-04-04T05:04:31.225Z,7.90
2019-04-04T05:06:59.751Z,7.94
2019-04-04T05:09:28.261Z,7.96
2019-04-04T05:11:56.729Z,7.98
2019-04-04T05:14:25.194Z,7.99
2019-04-04T05:16:53.681Z,8.02
2019-04-04T05:19:22.211Z,8.03
2019-04-04T05:21:50.715Z,8.07
2019-04-04T05:24:19.165Z,8.06
2019-04-04T05:26:47.676Z,8.09
2019-04-04T05:29:16.131Z,8.11
2019-04-04T05:31:44.613Z,8.13
2019-04-04T05:34:13.130Z,8.14
2019-04-04T05:36:41.633Z,8.17
2019-04-04T05:39:10.094Z,8.17
2019-04-04T05:41:38.580Z,8.20
2019-04-04T05:44:09.066Z,8.22
2019-04-04T05:46:38.412Z,8.21
2019-04-04T05:49:08.310Z,8.21
2019-04-04T05:51:37.055Z,8.23
2019-04-04T05:54:46.578Z,8.25
2019-04-04T05:57:15.082Z,8.28
2019-04-04T05:59:43.601Z,8.28
2019-04-04T06:02:12.221Z,8.29
2019-04-04T06:04:41.224Z,8.31
2019-04-04T06:07:09.706Z,8.31
2019-04-04T06:09:38.175Z,8.29
2019-04-04T06:12:06.729Z,8.31
2019-04-04T06:14:35.206Z,8.33
2019-04-04T06:17:05.094Z,8.34
2019-04-04T06:19:33.982Z,8.37
2019-04-04T06:22:02.535Z,8.37
2019-04-04T06:24:31.001Z,8.39
2019-04-04T06:26:59.557Z,8.44
2019-04-04T06:29:28.021Z,8.46
2019-04-04T06:31:59.988Z,8.47
2019-04-04T06:34:28.305Z,8.49
2019-04-04T06:36:56.793Z,8.49
2019-04-04T06:39:25.798Z,8.50
2019-04-04T06:41:54.339Z,8.55
2019-04-04T06:44:22.882Z,8.58
2019-04-04T06:46:53.468Z,8.60
2019-04-04T06:49:21.701Z,8.57
2019-04-04T06:51:50.191Z,8.57
2019-04-04T06:54:18.683Z,8.54
2019-04-04T06:56:47.168Z,8.53
2019-04-04T06:59:15.644Z,8.54
2019-04-04T07:01:44.147Z,8.55
2019-04-04T07:04:12.620Z,8.56
2019-04-04T07:06:41.979Z,8.63
2019-04-04T07:09:13.365Z,8.64
2019-04-04T07:11:41.170Z,8.64
2019-04-04T07:14:09.644Z,8.67
2019-04-04T07:16:38.104Z,8.70
2019-04-04T07:19:08.047Z,8.71
2019-04-04T07:21:36.746Z,8.74
2019-04-04T07:24:05.404Z,8.70
2019-04-04T07:26:33.863Z,8.73
2019-04-04T07:29:03.882Z,8.77
2019-04-04T07:31:33.947Z,8.78
2019-04-04T07:34:02.642Z,8.73
2019-04-04T07:36:33.171Z,8.78
2019-04-04T07:39:04.714Z,8.80
2019-04-04T07:41:33.192Z,8.85
2019-04-04T07:44:05.685Z,8.83
2019-04-04T07:46:45.373Z,8.87
2019-04-04T07:49:11.450Z,8.90
2019-04-04T07:51:39.925Z,8.94
2019-04-04T07:54:08.421Z,8.97
2019-04-04T07:56:37.077Z,8.99
2019-04-04T07:59:05.601Z,8.95
2019-04-04T08:01:34.129Z,8.99
2019-04-04T08:04:02.600Z,9.06
2019-04-04T08:06:31.158Z,9.03
2019-04-04T08:09:02.799Z,9.09
2019-04-04T08:11:32.683Z,9.05
2019-04-04T08:14:01.219Z,9.13
2019-04-04T08:16:29.891Z,9.16
2019-04-04T08:18:58.404Z,9.13
2019-04-04T08:21:26.872Z,9.20
2019-04-04T08:23:55.354Z,9.31
2019-04-04T08:26:23.836Z,9.38
2019-04-04T08:28:52.361Z,9.46
2019-04-04T08:31:22.346Z,9.50
2019-04-04T08:33:50.836Z,9.62
2019-04-04T08:36:19.304Z,9.62
2019-04-04T08:38:52.200Z,9.70
2019-04-04T08:41:20.907Z,9.72
2019-04-04T08:43:49.381Z,9.74
2019-04-04T08:46:19.838Z,9.79
2019-04-04T08:48:48.489Z,9.86
2019-04-04T08:51:16.964Z,9.90
2019-04-04T08:53:45.677Z,10.03
2019-04-04T08:56:14.160Z,9.99
2019-04-04T08:58:42.653Z,10.09
2019-04-04T09:01:11.181Z,10.12
2019-04-04T09:03:39.691Z,10.09
2019-04-04T09:06:08.162Z,10.16
2019-04-04T09:08:36.691Z,10.19
2019-04-04T09:11:05.235Z,10.23
2019-04-04T09:13:33.808Z,10.13
2019-04-04T09:16:02.355Z,10.16
2019-04-04T09:18:30.930Z,10.14
2019-04-04T09:20:59.392Z,10.11
2019-04-04T09:23:29.419Z,10.17
2019-04-04T09:26:05.523Z,10.18
2019-04-04T09:28:28.238Z,10.20
2019-04-04T09:30:56.699Z,10.17
2019-04-04T09:33:25.177Z,10.18
2019-04-04T09:35:53.815Z,10.19
2019-04-04T09:38:22.358Z,10.21
2019-04-04T09:40:50.973Z,10.17
2019-04-04T09:43:19.449Z,10.18
2019-04-04T09:45:47.995Z,10.19
2019-04-04T09:48:19.505Z,10.16
2019-04-04T09:50:47.962Z,10.17
2019-04-04T09:53:16.457Z,10.24
2019-04-04T09:55:44.965Z,10.22
2019-04-04T09:58:13.464Z,10.21
2019-04-04T10:00:42.163Z,10.30
2019-04-04T10:03:10.736Z,10.27
2019-04-04T10:05:39.225Z,10.32
2019-04-04T10:08:08.087Z,10.32
2019-04-04T10:10:36.629Z,10.29
2019-04-04T10:13:05.251Z,10.32
2019-04-04T10:15:33.726Z,10.37
2019-04-04T10:18:02.281Z,10.42
2019-04-04T10:20:30.756Z,10.37
2019-04-04T10:22:59.238Z,10.42
2019-04-04T10:25:29.354Z,10.45
2019-04-04T10:27:57.935Z,10.52
2019-04-04T10:30:26.472Z,10.45
2019-04-04T10:32:54.962Z,10.45
2019-04-04T10:35:23.510Z,10.46
2019-04-04T10:37:52.046Z,10.47
2019-04-04T10:40:20.672Z,10.46
2019-04-04T10:42:49.131Z,10.54
2019-04-04T10:45:17.751Z,10.51
2019-04-04T10:47:46.282Z,10.56
2019-04-04T10:50:15.620Z,10.65
2019-04-04T10:52:44.152Z,10.61
2019-04-04T10:55:13.062Z,10.58
2019-04-04T10:57:41.535Z,10.54
2019-04-04T11:00:10.860Z,10.57
2019-04-04T11:02:39.462Z,10.53
2019-04-04T11:05:08.074Z,10.62
2019-04-04T11:07:36.568Z,10.64
2019-04-04T11:10:07.266Z,10.63
2019-04-04T11:12:35.801Z,10.64
2019-04-04T11:15:10.766Z,10.70
2019-04-04T11:17:39.257Z,10.69
2019-04-04T11:20:07.960Z,10.74
2019-04-04T11:22:41.243Z,10.70
2019-04-04T11:25:09.952Z,10.79
2019-04-04T11:27:38.516Z,10.80
2019-04-04T11:30:15.434Z,10.77
2019-04-04T11:32:40.876Z,10.79
2019-04-04T11:35:11.240Z,10.87
2019-04-04T11:37:39.731Z,10.89
2019-04-04T11:40:08.539Z,10.91
2019-04-04T11:42:37.289Z,10.87
2019-04-04T11:45:06.214Z,10.94
2019-04-04T11:47:34.730Z,10.92
2019-04-04T11:50:03.948Z,10.85
2019-04-04T11:52:32.431Z,10.89
2019-04-04T11:55:01.688Z,10.94
2019-04-04T11:57:30.186Z,11.06
2019-04-04T11:59:58.647Z,11.09
2019-04-04T12:02:28.628Z,11.11
2019-04-04T12:04:57.918Z,11.07
2019-04-04T12:07:26.451Z,11.06
2019-04-04T12:10:06.879Z,11.01
2019-04-04T12:12:25.229Z,11.01
2019-04-04T12:14:53.839Z,11.03
2019-04-04T12:17:22.303Z,11.06
2019-04-04T12:19:52.332Z,11.06
2019-04-04T12:22:20.800Z,11.08
2019-04-04T12:24:49.535Z,11.11
2019-04-04T12:27:18.015Z,11.08
2019-04-04T12:29:48.683Z,11.10
2019-04-04T12:32:17.196Z,11.06
2019-04-04T12:34:45.998Z,11.09
2019-04-04T12:37:14.497Z,11.16
2019-04-04T12:39:45.167Z,11.17
2019-04-04T12:42:13.717Z,11.18
2019-04-04T12:44:42.203Z,11.24
2019-04-04T12:47:10.667Z,11.27
2019-04-04T12:49:41.223Z,11.31
2019-04-04T12:52:11.231Z,11.34
2019-04-04T12:54:39.723Z,11.51
2019-04-04T12:57:08.194Z,11.48
2019-04-04T12:59:36.689Z,11.61
2019-04-04T13:02:05.615Z,11.66
2019-04-04T13:04:34.080Z,11.90
2019-04-04T13:07:02.619Z,12.10
2019-04-04T13:09:31.079Z,12.27
2019-04-04T13:11:59.583Z,12.40
2019-04-04T13:14:29.579Z,12.39
2019-04-04T13:16:58.203Z,12.40
2019-04-04T13:19:26.699Z,12.46
2019-04-04T13:21:56.588Z,12.37
2019-04-04T13:24:25.063Z,12.58
2019-04-04T13:26:58.384Z,12.62
2019-04-04T13:29:26.947Z,12.68
2019-04-04T13:31:58.429Z,12.63
2019-04-04T13:34:29.707Z,12.59
2019-04-04T13:36:58.337Z,12.61
2019-04-04T13:39:26.837Z,12.64
2019-04-04T13:41:55.307Z,12.79
2019-04-04T13:44:26.847Z,12.87
2019-04-04T13:46:55.373Z,12.95
2019-04-04T13:49:24.599Z,13.02
2019-04-04T13:51:53.719Z,13.04
2019-04-04T13:54:23.853Z,13.07
2019-04-04T13:56:52.874Z,13.08
2019-04-04T13:59:23.906Z,13.17
2019-04-04T14:01:52.393Z,13.11
2019-04-04T14:04:24.456Z,13.07
2019-04-04T14:06:51.164Z,13.05
2019-04-04T14:09:19.719Z,13.07
2019-04-04T14:11:48.274Z,13.13
2019-04-04T14:14:16.793Z,13.07
2019-04-04T14:16:45.261Z,13.16
2019-04-04T14:19:13.772Z,13.23
2019-04-04T14:21:42.387Z,13.41
2019-04-04T14:24:13.853Z,13.49
2019-04-04T14:26:41.092Z,13.50
2019-04-04T14:29:09.565Z,13.51
2019-04-04T14:31:38.062Z,13.46
2019-04-04T14:34:06.567Z,13.62
2019-04-04T14:36:41.948Z,13.60
2019-04-04T14:39:10.432Z,13.60
2019-04-04T14:41:38.922Z,13.52
2019-04-04T14:44:07.424Z,13.50
2019-04-04T14:46:39.342Z,13.56
2019-04-04T14:49:07.706Z,13.58
2019-04-04T14:51:36.200Z,13.39
2019-04-04T14:54:06.248Z,13.36
2019-04-04T14:56:34.744Z,13.38
2019-04-04T14:59:06.084Z,13.37
2019-04-04T15:01:35.152Z,13.42
2019-04-04T15:04:03.849Z,13.39
2019-04-04T15:06:32.333Z,13.48
2019-04-04T15:09:01.357Z,13.58
2019-04-04T15:11:31.371Z,13.39
2019-04-04T15:14:02.901Z,13.39
2019-04-04T15:16:32.699Z,13.27
2019-04-04T15:19:01.273Z,13.35
2019-04-04T15:21:29.841Z,13.39
2019-04-04T15:23:58.302Z,13.38
2019-04-04T15:26:26.955Z,13.40
2019-04-04T15:28:55.783Z,13.38
2019-04-04T15:31:24.228Z,13.41
2019-04-04T15:33:52.709Z,13.40
2019-04-04T15:36:21.329Z,13.31
2019-04-04T15:38:49.839Z,13.25
2019-04-04T15:41:18.379Z,13.22
2019-04-04T15:43:46.846Z,13.27
2019-04-04T15:46:15.705Z,13.19
2019-04-04T15:48:47.231Z,13.13
2019-04-04T15:51:15.791Z,13.16
2019-04-04T15:53:44.309Z,13.18
2019-04-04T15:56:16.783Z,13.15
2019-04-04T15:58:45.295Z,13.10
2019-04-04T16:01:13.764Z,13.08
2019-04-04T16:03:42.266Z,12.97
2019-04-04T16:06:10.755Z,12.95
2019-04-04T16:08:39.309Z,12.92
2019-04-04T16:14:28.199Z,12.71
2019-04-04T16:16:56.668Z,12.58
2019-04-04T16:19:25.186Z,12.58
2019-04-04T16:21:53.673Z,12.57
2019-04-04T16:24:23.683Z,12.54
2019-04-04T16:26:52.208Z,12.51
2019-04-04T16:29:24.801Z,12.50
2019-04-04T16:31:53.359Z,12.47
2019-04-04T16:34:21.867Z,12.45
2019-04-04T16:36:50.436Z,12.42
2019-04-04T16:39:18.997Z,12.42
2019-04-04T16:41:47.447Z,12.40
2019-04-04T16:44:16.516Z,12.39
2019-04-04T16:46:45.013Z,12.36
2019-04-04T16:49:13.522Z,12.35
2019-04-04T16:51:42.008Z,12.30
2019-04-04T16:54:10.482Z,12.26
2019-04-04T16:56:44.287Z,12.22
2019-04-04T16:59:12.819Z,12.20
2019-04-04T17:01:41.354Z,12.14
2019-04-04T17:04:09.907Z,12.10
2019-04-04T17:06:38.384Z,12.08
2019-04-04T17:09:08.003Z,12.02
2019-04-04T17:11:41.359Z,11.98
2019-04-04T17:14:09.509Z,11.94
2019-04-04T17:16:38.079Z,11.92
2019-04-04T17:19:06.639Z,11.88
2019-04-04T17:21:35.216Z,11.84
2019-04-04T17:24:03.782Z,11.82
2019-04-04T17:26:33.819Z,11.76
2019-04-04T17:29:02.316Z,11.71
2019-04-04T17:31:30.855Z,11.68
2019-04-04T17:33:59.736Z,11.64
2019-04-04T17:36:31.618Z,11.59
2019-04-04T17:39:00.648Z,11.53
2019-04-04T17:41:29.203Z,11.51
2019-04-04T17:44:02.326Z,11.44
2019-04-04T17:46:32.357Z,11.40
2019-04-04T17:49:01.068Z,11.35
2019-04-04T17:51:29.675Z,11.31
2019-04-04T17:53:58.295Z,11.26
2019-04-04T17:56:27.248Z,11.22
2019-04-04T17:59:00.200Z,11.17
2019-04-04T18:01:26.455Z,11.12
2019-04-04T18:03:54.963Z,11.07
2019-04-04T18:06:31.255Z,11.02
2019-04-04T18:09:02.236Z,10.98
2019-04-04T18:11:33.636Z,10.92
2019-04-04T18:14:02.188Z,10.85
2019-04-04T18:16:33.403Z,10.81
2019-04-04T18:19:02.082Z,10.74
2019-04-04T18:21:30.652Z,10.70
2019-04-04T18:23:59.190Z,10.65
2019-04-04T18:26:27.767Z,10.63
2019-04-04T18:28:56.265Z,10.55
2019-04-04T18:31:24.933Z,10.48
2019-04-04T18:33:53.895Z,10.49
2019-04-04T18:36:25.964Z,10.35
2019-04-04T18:38:54.468Z,10.37
2019-04-04T18:41:23.022Z,10.35
2019-04-04T18:43:53.607Z,10.29
2019-04-04T18:46:23.639Z,10.29
2019-04-04T18:48:52.165Z,10.24
2019-04-04T18:51:20.780Z,10.19
2019-04-04T18:53:49.335Z,10.19
2019-04-04T18:56:17.858Z,10.16
2019-04-04T18:58:47.962Z,10.07
2019-04-04T19:01:16.615Z,10.03
2019-04-04T19:03:48.444Z,9.96
2019-04-04T19:06:19.883Z,9.93
2019-04-04T19:08:50.577Z,9.91
2019-04-04T19:11:18.704Z,9.91
2019-04-04T19:13:47.207Z,9.88
2019-04-04T19:16:15.722Z,9.79
2019-04-04T19:18:44.201Z,9.73
2019-04-04T19:21:12.852Z,9.75
2019-04-04T19:23:49.037Z,9.70
2019-04-04T19:26:14.469Z,9.66
2019-04-04T19:28:51.593Z,9.66
2019-04-04T19:31:17.626Z,9.61
2019-04-04T19:33:45.729Z,9.59
2019-04-04T19:36:14.277Z,9.60
2019-04-04T19:38:42.844Z,9.53
2019-04-04T19:41:11.393Z,9.54
2019-04-04T19:43:39.882Z,9.54
2019-04-04T19:46:08.491Z,9.52
2019-04-04T19:48:37.007Z,9.48
2019-04-04T19:51:15.640Z,9.40
2019-04-04T19:53:44.126Z,9.40
2019-04-04T19:56:12.659Z,9.39
2019-04-04T19:58:44.247Z,9.37
2019-04-04T20:01:12.810Z,9.36
2019-04-04T20:03:41.311Z,9.33
2019-04-04T20:06:09.808Z,9.32
2019-04-04T20:08:38.305Z,9.28
2019-04-04T20:11:06.774Z,9.27
2019-04-04T20:13:35.251Z,9.12
2019-04-04T20:16:05.258Z,9.25
2019-04-04T20:18:33.826Z,9.22
2019-04-04T20:21:05.647Z,9.22
2019-04-04T20:23:34.125Z,9.15
2019-04-04T20:26:02.709Z,9.17
2019-04-04T20:28:32.691Z,9.16
2019-04-04T20:31:01.261Z,9.13
2019-04-04T20:33:29.758Z,9.12
2019-04-04T20:36:00.355Z,9.06
2019-04-04T20:38:28.885Z,9.06
2019-04-04T20:40:58.872Z,9.05
2019-04-04T20:43:27.360Z,9.00
2019-04-04T20:45:57.497Z,8.97
2019-04-04T20:48:26.047Z,8.95
2019-04-04T20:50:55.602Z,8.91
2019-04-04T20:53:24.041Z,8.87
2019-04-04T20:55:52.549Z,8.90
2019-04-04T20:58:21.027Z,8.82
2019-04-04T21:00:49.532Z,8.85
2019-04-04T21:03:18.016Z,8.82
2019-04-04T21:05:46.585Z,8.81
2019-04-04T21:08:15.047Z,8.77
2019-04-04T21:10:43.593Z,8.77
2019-04-04T21:13:12.118Z,8.74
2019-04-04T21:15:40.589Z,8.73
2019-04-04T21:18:09.116Z,8.71
2019-04-04T21:20:37.586Z,8.70
2019-04-04T21:23:06.167Z,8.67
2019-04-04T21:25:34.614Z,8.67
2019-04-04T21:28:03.103Z,8.62
2019-04-04T21:30:31.570Z,8.60
2019-04-04T21:33:00.354Z,8.58
2019-04-04T21:35:28.824Z,8.57
2019-04-04T21:37:59.810Z,8.56
2019-04-04T21:40:27.970Z,8.54
2019-04-04T21:42:56.535Z,8.54
2019-04-04T21:45:25.181Z,8.50
2019-04-04T21:47:53.716Z,8.49
2019-04-04T21:50:22.196Z,8.47
2019-04-04T21:52:50.711Z,8.46
2019-04-04T21:55:22.128Z,8.42
2019-04-04T21:57:50.638Z,8.40
2019-04-04T22:00:21.857Z,8.39
2019-04-04T22:02:53.647Z,8.37
2019-04-04T22:05:22.234Z,8.35
2019-04-04T22:07:50.716Z,8.32
2019-04-04T22:10:19.319Z,8.31
2019-04-04T22:12:47.881Z,8.30
2019-04-04T22:15:16.389Z,8.28
2019-04-04T22:17:44.907Z,8.29
2019-04-04T22:20:13.578Z,8.28
2019-04-04T22:22:42.149Z,8.28
2019-04-04T22:25:12.349Z,8.26
2019-04-04T22:27:40.964Z,8.26
2019-04-04T22:30:09.924Z,8.27
2019-04-04T22:32:38.480Z,8.29
2019-04-04T22:35:07.123Z,8.29
2019-04-04T22:37:36.184Z,8.32
2019-04-04T22:40:08.614Z,8.34
2019-04-04T22:42:37.118Z,8.35
2019-04-04T22:45:08.004Z,8.34
2019-04-04T22:47:36.796Z,8.35
2019-04-04T22:50:06.915Z,8.35
2019-04-04T22:52:35.451Z,8.41
2019-04-04T22:55:04.185Z,8.44
2019-04-04T22:57:32.665Z,8.46
2019-04-04T23:00:02.804Z,8.44
2019-04-04T23:02:31.375Z,8.43
2019-04-04T23:05:01.535Z,8.39
2019-04-04T23:07:32.789Z,8.40
2019-04-04T23:10:01.302Z,8.43
2019-04-04T23:12:32.424Z,8.48
2019-04-04T23:15:00.860Z,8.46
2019-04-04T23:17:29.369Z,8.46
2019-04-04T23:19:57.936Z,8.45
2019-04-04T23:22:26.440Z,8.44
2019-04-04T23:24:55.201Z,8.45
2019-04-04T23:27:23.846Z,8.43
2019-04-04T23:29:52.446Z,8.45
2019-04-04T23:32:22.480Z,8.42
2019-04-04T23:34:51.118Z,8.43
2019-04-04T23:37:19.603Z,8.42
2019-04-04T23:39:48.181Z,8.45
2019-04-04T23:42:18.341Z,8.43
2019-04-04T23:44:46.861Z,8.38
2019-04-04T23:47:15.380Z,8.44
2019-04-04T23:49:45.451Z,8.49
2019-04-04T23:52:15.549Z,8.45
2019-04-04T23:54:44.322Z,8.44
2019-04-04T23:57:12.807Z,8.51
2019-04-04T23:59:44.268Z,8.46
